Buzaubaj, Uzbekistan
Current Conditions -  °F | °C
As of 8:00 AM on Friday 28 Nov 2014 (Local Time) from UTNU Reporting Station
Clear Clear  
Wind Chill:   Ceiling: Unl
Heat Index: 12°   Visibility: 6mi
Dew Point:   Wind: 6mph
Humidity: 67%   Direction: 40°NE
Pressure: 30.45"   Gusts: NA
Location:  41.75°N, 62.47°E
Report Text: UTNU 280300Z 04005KT CAVOK M11/M16 Q1031 R31/CLRD70 NOSIG
Loading
Personal Weather Stations






























Interactive Weather Map New forecast layout! Learn more

10-Day Weather Forecast

Advertisements
Track Severe Weather on mobile